Vista Alegre, Argentina
Current Conditions -  °F | °C
As of 1:00 AM on Sunday 26 Oct 2014 (Local Time) from SAZN Reporting Station
Clear Clear  
Wind Chill: 16°   Ceiling: Unl
Heat Index: 16°   Visibility: 6mi
Dew Point: 11°   Wind: 2mph
Humidity: 72%   Direction: 270°W
Pressure: 29.8"   Gusts: NA
Location:  36.05°S, 67.38°W
Report Text: SAZN 260400Z 27002KT CAVOK 16/11 Q1009
Loading
Personal Weather Stations






























Interactive Weather Map
Tropical Storm Tracking
New forecast layout! Learn more

10-Day Weather Forecast

Advertisements
Track Severe Weather on mobile